sensor_id;sensor_type;location;lat;lon;timestamp;P1;durP1;ratioP1;P2;durP2;ratioP2
59770;SDS011;45649;53.014;6.600;2023-02-01T00:01:09;25.63;;;4.63;;
59770;SDS011;45649;53.014;6.600;2023-02-01T00:03:35;19.87;;;4.63;;
59770;SDS011;45649;53.014;6.600;2023-02-01T00:06:01;20.50;;;4.93;;
59770;SDS011;45649;53.014;6.600;2023-02-01T00:08:27;19.07;;;5.40;;
59770;SDS011;45649;53.014;6.600;2023-02-01T00:13:30;23.97;;;5.03;;
59770;SDS011;45649;53.014;6.600;2023-02-01T00:16:03;20.60;;;4.40;;
59770;SDS011;45649;53.014;6.600;2023-02-01T00:18:29;20.47;;;4.97;;
59770;SDS011;45649;53.014;6.600;2023-02-01T00:20:55;25.33;;;5.20;;
59770;SDS011;45649;53.014;6.600;2023-02-01T00:23:21;19.87;;;4.83;;
59770;SDS011;45649;53.014;6.600;2023-02-01T00:25:47;23.67;;;4.97;;
59770;SDS011;45649;53.014;6.600;2023-02-01T00:28:13;19.93;;;4.80;;
59770;SDS011;45649;53.014;6.600;2023-02-01T00:30:39;24.27;;;4.77;;
59770;SDS011;45649;53.014;6.600;2023-02-01T00:33:05;20.57;;;5.00;;
59770;SDS011;45649;53.014;6.600;2023-02-01T00:35:33;18.47;;;4.50;;
59770;SDS011;45649;53.014;6.600;2023-02-01T00:37:59;24.30;;;5.63;;
59770;SDS011;45649;53.014;6.600;2023-02-01T00:40:25;21.17;;;4.60;;
59770;SDS011;45649;53.014;6.600;2023-02-01T00:42:51;21.57;;;4.50;;
59770;SDS011;45649;53.014;6.600;2023-02-01T00:45:18;21.67;;;5.30;;
59770;SDS011;45649;53.014;6.600;2023-02-01T00:47:44;22.57;;;4.87;;
59770;SDS011;45649;53.014;6.600;2023-02-01T00:50:10;22.10;;;5.10;;
59770;SDS011;45649;53.014;6.600;2023-02-01T00:52:36;25.20;;;5.60;;
59770;SDS011;45649;53.014;6.600;2023-02-01T00:55:02;21.80;;;4.83;;
59770;SDS011;45649;53.014;6.600;2023-02-01T00:57:28;18.23;;;4.40;;
59770;SDS011;45649;53.014;6.600;2023-02-01T00:59:54;20.20;;;4.83;;
59770;SDS011;45649;53.014;6.600;2023-02-01T01:02:20;17.43;;;4.77;;
59770;SDS011;45649;53.014;6.600;2023-02-01T01:04:46;21.87;;;5.10;;
59770;SDS011;45649;53.014;6.600;2023-02-01T01:07:13;22.83;;;4.60;;
59770;SDS011;45649;53.014;6.600;2023-02-01T01:09:39;22.83;;;5.00;;
59770;SDS011;45649;53.014;6.600;2023-02-01T01:12:05;19.83;;;4.70;;
59770;SDS011;45649;53.014;6.600;2023-02-01T01:14:32;19.17;;;4.63;;
59770;SDS011;45649;53.014;6.600;2023-02-01T01:16:58;20.07;;;4.70;;
59770;SDS011;45649;53.014;6.600;2023-02-01T01:19:24;21.93;;;4.63;;
59770;SDS011;45649;53.014;6.600;2023-02-01T01:21:50;18.60;;;4.47;;
59770;SDS011;45649;53.014;6.600;2023-02-01T01:24:16;19.57;;;4.60;;
59770;SDS011;45649;53.014;6.600;2023-02-01T01:26:42;17.53;;;4.53;;
59770;SDS011;45649;53.014;6.600;2023-02-01T01:29:08;20.87;;;4.93;;
59770;SDS011;45649;53.014;6.600;2023-02-01T01:31:36;15.90;;;4.23;;
59770;SDS011;45649;53.014;6.600;2023-02-01T01:34:02;20.87;;;4.60;;
59770;SDS011;45649;53.014;6.600;2023-02-01T01:36:28;17.77;;;4.73;;
59770;SDS011;45649;53.014;6.600;2023-02-01T01:38:54;18.67;;;4.63;;
59770;SDS011;45649;53.014;6.600;2023-02-01T01:41:22;22.10;;;5.20;;
59770;SDS011;45649;53.014;6.600;2023-02-01T01:46:22;23.10;;;5.27;;
59770;SDS011;45649;53.014;6.600;2023-02-01T01:51:24;20.20;;;4.77;;
59770;SDS011;45649;53.014;6.600;2023-02-01T01:53:59;22.60;;;5.20;;
59770;SDS011;45649;53.014;6.600;2023-02-01T01:56:26;19.93;;;4.90;;
59770;SDS011;45649;53.014;6.600;2023-02-01T01:58:54;24.10;;;5.10;;
59770;SDS011;45649;53.014;6.600;2023-02-01T02:01:20;18.53;;;4.40;;
59770;SDS011;45649;53.014;6.600;2023-02-01T02:03:46;22.27;;;4.67;;
59770;SDS011;45649;53.014;6.600;2023-02-01T02:06:56;22.40;;;4.80;;
59770;SDS011;45649;53.014;6.600;2023-02-01T02:09:03;21.63;;;5.23;;
59770;SDS011;45649;53.014;6.600;2023-02-01T02:11:29;19.57;;;4.50;;
59770;SDS011;45649;53.014;6.600;2023-02-01T02:13:55;18.13;;;4.77;;
59770;SDS011;45649;53.014;6.600;2023-02-01T02:19:13;20.80;;;4.77;;
59770;SDS011;45649;53.014;6.600;2023-02-01T02:39:49;20.97;;;4.80;;
59770;SDS011;45649;53.014;6.600;2023-02-01T02:50:35;16.47;;;4.50;;
59770;SDS011;45649;53.014;6.600;2023-02-01T02:53:27;24.50;;;5.00;;
59770;SDS011;45649;53.014;6.600;2023-02-01T02:56:12;20.17;;;4.77;;
59770;SDS011;45649;53.014;6.600;2023-02-01T02:58:59;19.10;;;4.93;;
59770;SDS011;45649;53.014;6.600;2023-02-01T03:01:45;24.30;;;5.00;;
59770;SDS011;45649;53.014;6.600;2023-02-01T03:04:29;19.33;;;4.70;;
59770;SDS011;45649;53.014;6.600;2023-02-01T03:06:55;23.17;;;5.67;;
59770;SDS011;45649;53.014;6.600;2023-02-01T03:09:31;20.87;;;4.90;;
59770;SDS011;45649;53.014;6.600;2023-02-01T03:12:00;20.80;;;4.93;;
59770;SDS011;45649;53.014;6.600;2023-02-01T03:14:47;18.80;;;4.63;;
59770;SDS011;45649;53.014;6.600;2023-02-01T03:17:18;29.83;;;5.20;;
59770;SDS011;45649;53.014;6.600;2023-02-01T03:19:46;17.67;;;5.10;;
59770;SDS011;45649;53.014;6.600;2023-02-01T03:22:20;22.13;;;4.90;;
59770;SDS011;45649;53.014;6.600;2023-02-01T03:24:48;20.47;;;5.37;;
59770;SDS011;45649;53.014;6.600;2023-02-01T03:27:21;20.63;;;4.87;;
59770;SDS011;45649;53.014;6.600;2023-02-01T03:32:14;23.47;;;4.90;;
59770;SDS011;45649;53.014;6.600;2023-02-01T03:34:40;19.93;;;4.53;;
59770;SDS011;45649;53.014;6.600;2023-02-01T03:37:08;31.03;;;4.90;;
59770;SDS011;45649;53.014;6.600;2023-02-01T03:42:02;18.83;;;4.80;;
59770;SDS011;45649;53.014;6.600;2023-02-01T03:44:37;17.23;;;4.43;;
59770;SDS011;45649;53.014;6.600;2023-02-01T03:47:05;24.20;;;5.30;;
59770;SDS011;45649;53.014;6.600;2023-02-01T03:49:34;17.77;;;4.60;;
59770;SDS011;45649;53.014;6.600;2023-02-01T03:52:01;20.50;;;4.83;;
59770;SDS011;45649;53.014;6.600;2023-02-01T03:54:28;23.60;;;5.43;;
59770;SDS011;45649;53.014;6.600;2023-02-01T03:56:56;23.60;;;5.10;;
59770;SDS011;45649;53.014;6.600;2023-02-01T03:59:23;20.13;;;4.80;;
59770;SDS011;45649;53.014;6.600;2023-02-01T04:01:49;21.10;;;5.90;;
59770;SDS011;45649;53.014;6.600;2023-02-01T04:04:15;22.53;;;4.80;;
59770;SDS011;45649;53.014;6.600;2023-02-01T04:06:45;24.83;;;5.20;;
59770;SDS011;45649;53.014;6.600;2023-02-01T04:09:11;22.97;;;5.53;;
59770;SDS011;45649;53.014;6.600;2023-02-01T04:11:38;21.73;;;4.93;;
59770;SDS011;45649;53.014;6.600;2023-02-01T04:14:04;22.27;;;5.07;;
59770;SDS011;45649;53.014;6.600;2023-02-01T04:16:30;23.27;;;5.37;;
59770;SDS011;45649;53.014;6.600;2023-02-01T04:18:57;23.20;;;5.30;;
59770;SDS011;45649;53.014;6.600;2023-02-01T04:21:23;22.60;;;5.70;;
59770;SDS011;45649;53.014;6.600;2023-02-01T04:23:50;24.30;;;4.80;;
59770;SDS011;45649;53.014;6.600;2023-02-01T04:26:16;20.67;;;4.50;;
59770;SDS011;45649;53.014;6.600;2023-02-01T04:28:42;21.30;;;5.00;;
59770;SDS011;45649;53.014;6.600;2023-02-01T04:31:08;18.90;;;5.03;;
59770;SDS011;45649;53.014;6.600;2023-02-01T04:33:34;19.57;;;4.97;;
59770;SDS011;45649;53.014;6.600;2023-02-01T04:36:00;27.77;;;5.07;;
59770;SDS011;45649;53.014;6.600;2023-02-01T04:38:26;23.57;;;4.80;;
59770;SDS011;45649;53.014;6.600;2023-02-01T04:40:54;22.87;;;5.37;;
59770;SDS011;45649;53.014;6.600;2023-02-01T04:43:20;23.33;;;5.33;;
59770;SDS011;45649;53.014;6.600;2023-02-01T04:45:47;21.60;;;5.37;;
59770;SDS011;45649;53.014;6.600;2023-02-01T04:48:13;25.83;;;5.03;;
59770;SDS011;45649;53.014;6.600;2023-02-01T04:50:40;21.97;;;4.70;;
59770;SDS011;45649;53.014;6.600;2023-02-01T04:53:06;19.33;;;4.80;;
59770;SDS011;45649;53.014;6.600;2023-02-01T04:55:32;22.40;;;4.63;;
59770;SDS011;45649;53.014;6.600;2023-02-01T04:57:58;22.63;;;5.37;;
59770;SDS011;45649;53.014;6.600;2023-02-01T05:00:24;17.67;;;4.63;;
59770;SDS011;45649;53.014;6.600;2023-02-01T05:02:50;23.67;;;4.80;;
59770;SDS011;45649;53.014;6.600;2023-02-01T05:05:16;21.83;;;5.13;;
59770;SDS011;45649;53.014;6.600;2023-02-01T05:07:42;26.97;;;5.30;;
59770;SDS011;45649;53.014;6.600;2023-02-01T05:10:08;23.87;;;4.93;;
59770;SDS011;45649;53.014;6.600;2023-02-01T05:12:35;25.17;;;4.77;;
59770;SDS011;45649;53.014;6.600;2023-02-01T05:15:19;21.10;;;5.70;;
59770;SDS011;45649;53.014;6.600;2023-02-01T05:17:45;25.70;;;4.53;;
59770;SDS011;45649;53.014;6.600;2023-02-01T05:20:11;21.03;;;4.57;;
59770;SDS011;45649;53.014;6.600;2023-02-01T05:22:37;21.60;;;4.80;;
59770;SDS011;45649;53.014;6.600;2023-02-01T05:25:04;21.37;;;5.33;;
59770;SDS011;45649;53.014;6.600;2023-02-01T05:27:30;22.40;;;4.97;;
59770;SDS011;45649;53.014;6.600;2023-02-01T05:29:56;20.10;;;5.83;;
59770;SDS011;45649;53.014;6.600;2023-02-01T05:32:22;27.17;;;5.37;;
59770;SDS011;45649;53.014;6.600;2023-02-01T05:34:48;20.57;;;5.17;;
59770;SDS011;45649;53.014;6.600;2023-02-01T05:37:14;17.33;;;5.00;;
59770;SDS011;45649;53.014;6.600;2023-02-01T05:39:41;22.27;;;5.37;;
59770;SDS011;45649;53.014;6.600;2023-02-01T05:42:07;22.13;;;4.57;;
59770;SDS011;45649;53.014;6.600;2023-02-01T05:44:33;24.30;;;5.50;;
59770;SDS011;45649;53.014;6.600;2023-02-01T05:46:59;22.47;;;5.23;;
59770;SDS011;45649;53.014;6.600;2023-02-01T05:49:25;20.40;;;4.93;;
59770;SDS011;45649;53.014;6.600;2023-02-01T05:51:51;20.93;;;5.00;;
59770;SDS011;45649;53.014;6.600;2023-02-01T05:54:17;16.63;;;4.57;;
59770;SDS011;45649;53.014;6.600;2023-02-01T05:56:43;20.47;;;5.07;;
59770;SDS011;45649;53.014;6.600;2023-02-01T05:59:09;21.70;;;5.13;;
59770;SDS011;45649;53.014;6.600;2023-02-01T06:01:35;17.17;;;4.77;;
59770;SDS011;45649;53.014;6.600;2023-02-01T06:04:01;21.57;;;5.00;;
59770;SDS011;45649;53.014;6.600;2023-02-01T06:06:27;20.63;;;4.97;;
59770;SDS011;45649;53.014;6.600;2023-02-01T06:08:53;20.17;;;4.37;;
59770;SDS011;45649;53.014;6.600;2023-02-01T06:11:20;26.40;;;5.43;;
59770;SDS011;45649;53.014;6.600;2023-02-01T06:13:46;23.90;;;5.10;;
59770;SDS011;45649;53.014;6.600;2023-02-01T06:16:12;20.50;;;5.07;;
59770;SDS011;45649;53.014;6.600;2023-02-01T06:18:40;20.23;;;4.53;;
59770;SDS011;45649;53.014;6.600;2023-02-01T06:21:06;21.97;;;4.87;;
59770;SDS011;45649;53.014;6.600;2023-02-01T06:23:33;23.07;;;4.80;;
59770;SDS011;45649;53.014;6.600;2023-02-01T06:26:00;24.17;;;4.70;;
59770;SDS011;45649;53.014;6.600;2023-02-01T06:28:27;25.30;;;4.87;;
59770;SDS011;45649;53.014;6.600;2023-02-01T06:30:53;19.17;;;4.67;;
59770;SDS011;45649;53.014;6.600;2023-02-01T06:33:19;21.13;;;4.73;;
59770;SDS011;45649;53.014;6.600;2023-02-01T06:35:46;20.00;;;4.73;;
59770;SDS011;45649;53.014;6.600;2023-02-01T06:38:13;18.57;;;4.53;;
59770;SDS011;45649;53.014;6.600;2023-02-01T06:40:39;16.80;;;4.53;;
59770;SDS011;45649;53.014;6.600;2023-02-01T06:43:09;21.33;;;5.10;;
59770;SDS011;45649;53.014;6.600;2023-02-01T06:45:35;25.40;;;5.00;;
59770;SDS011;45649;53.014;6.600;2023-02-01T06:48:01;20.33;;;4.33;;
59770;SDS011;45649;53.014;6.600;2023-02-01T06:50:27;25.60;;;4.73;;
59770;SDS011;45649;53.014;6.600;2023-02-01T06:52:53;20.10;;;4.30;;
59770;SDS011;45649;53.014;6.600;2023-02-01T06:55:19;22.40;;;5.00;;
59770;SDS011;45649;53.014;6.600;2023-02-01T06:57:45;24.57;;;5.13;;
59770;SDS011;45649;53.014;6.600;2023-02-01T07:00:11;24.00;;;5.70;;
59770;SDS011;45649;53.014;6.600;2023-02-01T07:02:37;20.83;;;4.60;;
59770;SDS011;45649;53.014;6.600;2023-02-01T07:05:04;23.93;;;4.47;;
59770;SDS011;45649;53.014;6.600;2023-02-01T07:07:30;20.40;;;5.32;;
59770;SDS011;45649;53.014;6.600;2023-02-01T07:09:56;25.87;;;4.80;;
59770;SDS011;45649;53.014;6.600;2023-02-01T07:12:23;17.83;;;5.23;;
59770;SDS011;45649;53.014;6.600;2023-02-01T07:14:49;22.43;;;5.17;;
59770;SDS011;45649;53.014;6.600;2023-02-01T07:17:15;20.90;;;4.67;;
59770;SDS011;45649;53.014;6.600;2023-02-01T07:19:41;21.07;;;4.80;;
59770;SDS011;45649;53.014;6.600;2023-02-01T07:22:07;20.30;;;4.90;;
59770;SDS011;45649;53.014;6.600;2023-02-01T07:24:33;20.33;;;4.33;;
59770;SDS011;45649;53.014;6.600;2023-02-01T07:27:00;18.80;;;4.80;;
59770;SDS011;45649;53.014;6.600;2023-02-01T07:29:26;19.97;;;4.77;;
59770;SDS011;45649;53.014;6.600;2023-02-01T07:31:52;26.27;;;4.63;;
59770;SDS011;45649;53.014;6.600;2023-02-01T07:34:18;23.63;;;5.00;;
59770;SDS011;45649;53.014;6.600;2023-02-01T07:36:44;26.43;;;4.63;;
59770;SDS011;45649;53.014;6.600;2023-02-01T07:39:10;19.47;;;5.20;;
59770;SDS011;45649;53.014;6.600;2023-02-01T07:41:36;21.77;;;6.23;;
59770;SDS011;45649;53.014;6.600;2023-02-01T07:44:02;25.47;;;4.80;;
59770;SDS011;45649;53.014;6.600;2023-02-01T07:46:29;20.77;;;5.03;;
59770;SDS011;45649;53.014;6.600;2023-02-01T07:48:55;23.13;;;4.83;;
59770;SDS011;45649;53.014;6.600;2023-02-01T07:51:21;20.30;;;4.87;;
59770;SDS011;45649;53.014;6.600;2023-02-01T07:53:47;19.60;;;4.53;;
59770;SDS011;45649;53.014;6.600;2023-02-01T07:56:14;22.43;;;4.80;;
59770;SDS011;45649;53.014;6.600;2023-02-01T07:58:41;24.80;;;4.87;;
59770;SDS011;45649;53.014;6.600;2023-02-01T08:01:19;19.27;;;4.50;;
59770;SDS011;45649;53.014;6.600;2023-02-01T08:03:48;21.30;;;4.77;;
59770;SDS011;45649;53.014;6.600;2023-02-01T08:06:14;29.63;;;5.80;;
59770;SDS011;45649;53.014;6.600;2023-02-01T08:08:41;19.53;;;4.67;;
59770;SDS011;45649;53.014;6.600;2023-02-01T08:11:10;20.13;;;4.37;;
59770;SDS011;45649;53.014;6.600;2023-02-01T08:13:36;20.60;;;4.20;;
59770;SDS011;45649;53.014;6.600;2023-02-01T08:16:03;18.57;;;4.03;;
59770;SDS011;45649;53.014;6.600;2023-02-01T08:18:29;21.13;;;4.57;;
59770;SDS011;45649;53.014;6.600;2023-02-01T08:20:56;21.13;;;4.70;;
59770;SDS011;45649;53.014;6.600;2023-02-01T08:23:22;19.97;;;4.20;;
59770;SDS011;45649;53.014;6.600;2023-02-01T08:25:48;17.60;;;4.80;;
59770;SDS011;45649;53.014;6.600;2023-02-01T08:28:15;21.50;;;4.60;;
59770;SDS011;45649;53.014;6.600;2023-02-01T08:30:41;17.30;;;4.67;;
59770;SDS011;45649;53.014;6.600;2023-02-01T08:33:07;20.00;;;3.97;;
59770;SDS011;45649;53.014;6.600;2023-02-01T08:35:37;17.23;;;4.30;;
59770;SDS011;45649;53.014;6.600;2023-02-01T08:38:04;20.40;;;4.43;;
59770;SDS011;45649;53.014;6.600;2023-02-01T08:40:30;24.37;;;4.63;;
59770;SDS011;45649;53.014;6.600;2023-02-01T08:42:56;21.47;;;4.23;;
59770;SDS011;45649;53.014;6.600;2023-02-01T08:45:24;19.60;;;4.50;;
59770;SDS011;45649;53.014;6.600;2023-02-01T08:47:51;17.83;;;4.47;;
59770;SDS011;45649;53.014;6.600;2023-02-01T08:50:18;23.07;;;4.77;;
59770;SDS011;45649;53.014;6.600;2023-02-01T08:52:44;24.90;;;5.00;;
59770;SDS011;45649;53.014;6.600;2023-02-01T08:55:10;29.23;;;5.00;;
59770;SDS011;45649;53.014;6.600;2023-02-01T08:57:37;23.60;;;5.27;;
59770;SDS011;45649;53.014;6.600;2023-02-01T09:00:04;20.53;;;4.73;;
59770;SDS011;45649;53.014;6.600;2023-02-01T09:02:30;18.93;;;4.20;;
59770;SDS011;45649;53.014;6.600;2023-02-01T09:04:56;22.83;;;4.90;;
59770;SDS011;45649;53.014;6.600;2023-02-01T09:07:22;22.03;;;4.50;;
59770;SDS011;45649;53.014;6.600;2023-02-01T09:09:48;22.47;;;4.40;;
59770;SDS011;45649;53.014;6.600;2023-02-01T09:12:14;22.13;;;4.67;;
59770;SDS011;45649;53.014;6.600;2023-02-01T09:14:41;26.17;;;4.90;;
59770;SDS011;45649;53.014;6.600;2023-02-01T09:17:07;19.97;;;4.77;;
59770;SDS011;45649;53.014;6.600;2023-02-01T09:19:33;27.40;;;5.33;;
59770;SDS011;45649;53.014;6.600;2023-02-01T09:21:59;20.93;;;4.60;;
59770;SDS011;45649;53.014;6.600;2023-02-01T09:24:25;23.40;;;4.50;;
59770;SDS011;45649;53.014;6.600;2023-02-01T09:26:51;19.93;;;4.10;;
59770;SDS011;45649;53.014;6.600;2023-02-01T09:29:17;18.83;;;5.00;;
59770;SDS011;45649;53.014;6.600;2023-02-01T09:31:43;19.77;;;4.40;;
59770;SDS011;45649;53.014;6.600;2023-02-01T09:34:10;15.17;;;4.10;;
59770;SDS011;45649;53.014;6.600;2023-02-01T09:36:36;19.30;;;4.83;;
59770;SDS011;45649;53.014;6.600;2023-02-01T09:39:02;17.77;;;3.97;;
59770;SDS011;45649;53.014;6.600;2023-02-01T09:44:30;22.00;;;4.23;;
59770;SDS011;45649;53.014;6.600;2023-02-01T09:47:01;23.73;;;4.67;;
59770;SDS011;45649;53.014;6.600;2023-02-01T09:49:28;19.87;;;4.07;;
59770;SDS011;45649;53.014;6.600;2023-02-01T09:51:54;19.37;;;4.93;;
59770;SDS011;45649;53.014;6.600;2023-02-01T09:54:22;18.93;;;4.43;;
59770;SDS011;45649;53.014;6.600;2023-02-01T09:56:55;19.37;;;4.43;;
59770;SDS011;45649;53.014;6.600;2023-02-01T09:59:28;19.77;;;4.40;;
59770;SDS011;45649;53.014;6.600;2023-02-01T10:01:56;13.33;;;3.80;;
59770;SDS011;45649;53.014;6.600;2023-02-01T10:04:24;20.80;;;4.00;;
59770;SDS011;45649;53.014;6.600;2023-02-01T10:27:27;14.30;;;3.80;;
59770;SDS011;45649;53.014;6.600;2023-02-01T10:29:57;16.30;;;3.83;;
59770;SDS011;45649;53.014;6.600;2023-02-01T10:32:24;18.80;;;4.30;;
59770;SDS011;45649;53.014;6.600;2023-02-01T10:34:58;19.13;;;3.60;;
59770;SDS011;45649;53.014;6.600;2023-02-01T10:37:27;14.73;;;3.77;;
59770;SDS011;45649;53.014;6.600;2023-02-01T10:39:55;15.37;;;3.70;;
59770;SDS011;45649;53.014;6.600;2023-02-01T10:42:26;20.40;;;4.33;;
59770;SDS011;45649;53.014;6.600;2023-02-01T10:44:52;17.73;;;3.57;;
59770;SDS011;45649;53.014;6.600;2023-02-01T10:47:20;18.73;;;4.27;;
59770;SDS011;45649;53.014;6.600;2023-02-01T10:49:58;18.70;;;4.13;;
59770;SDS011;45649;53.014;6.600;2023-02-01T10:52:43;16.50;;;4.27;;
59770;SDS011;45649;53.014;6.600;2023-02-01T10:57:56;16.90;;;3.77;;
59770;SDS011;45649;53.014;6.600;2023-02-01T11:00:23;21.80;;;4.47;;
59770;SDS011;45649;53.014;6.600;2023-02-01T11:02:49;25.77;;;4.27;;
59770;SDS011;45649;53.014;6.600;2023-02-01T11:05:16;18.07;;;4.00;;
59770;SDS011;45649;53.014;6.600;2023-02-01T11:07:50;16.07;;;4.23;;
59770;SDS011;45649;53.014;6.600;2023-02-01T11:10:39;18.20;;;4.17;;
59770;SDS011;45649;53.014;6.600;2023-02-01T11:13:11;15.77;;;4.00;;
59770;SDS011;45649;53.014;6.600;2023-02-01T11:15:39;16.67;;;4.03;;
59770;SDS011;45649;53.014;6.600;2023-02-01T11:18:15;22.03;;;4.20;;
59770;SDS011;45649;53.014;6.600;2023-02-01T11:20:42;16.10;;;3.80;;
59770;SDS011;45649;53.014;6.600;2023-02-01T11:23:41;16.00;;;3.90;;
59770;SDS011;45649;53.014;6.600;2023-02-01T11:26:02;16.77;;;4.30;;
59770;SDS011;45649;53.014;6.600;2023-02-01T11:28:33;18.57;;;4.03;;
59770;SDS011;45649;53.014;6.600;2023-02-01T11:31:02;20.00;;;4.00;;
59770;SDS011;45649;53.014;6.600;2023-02-01T11:33:30;17.57;;;4.17;;
59770;SDS011;45649;53.014;6.600;2023-02-01T11:36:00;21.90;;;4.40;;
59770;SDS011;45649;53.014;6.600;2023-02-01T11:38:30;16.67;;;4.40;;
59770;SDS011;45649;53.014;6.600;2023-02-01T11:43:49;18.77;;;4.57;;
59770;SDS011;45649;53.014;6.600;2023-02-01T11:46:17;19.40;;;4.63;;
59770;SDS011;45649;53.014;6.600;2023-02-01T11:48:49;23.80;;;4.60;;
59770;SDS011;45649;53.014;6.600;2023-02-01T11:59:12;21.20;;;4.80;;
59770;SDS011;45649;53.014;6.600;2023-02-01T12:01:47;19.30;;;4.07;;
59770;SDS011;45649;53.014;6.600;2023-02-01T12:06:51;21.47;;;4.63;;
59770;SDS011;45649;53.014;6.600;2023-02-01T12:22:57;18.03;;;4.80;;
59770;SDS011;45649;53.014;6.600;2023-02-01T12:39:01;328.63;;;34.77;;
59770;SDS011;45649;53.014;6.600;2023-02-01T12:43:59;398.30;;;46.50;;
59770;SDS011;45649;53.014;6.600;2023-02-01T12:46:53;221.57;;;27.30;;
59770;SDS011;45649;53.014;6.600;2023-02-01T12:49:22;81.80;;;13.00;;
59770;SDS011;45649;53.014;6.600;2023-02-01T12:51:51;189.10;;;24.13;;
59770;SDS011;45649;53.014;6.600;2023-02-01T12:55:02;335.93;;;38.83;;
59770;SDS011;45649;53.014;6.600;2023-02-01T12:57:12;166.83;;;22.33;;
59770;SDS011;45649;53.014;6.600;2023-02-01T12:59:46;26.40;;;5.30;;
59770;SDS011;45649;53.014;6.600;2023-02-01T13:07:31;21.37;;;4.23;;
59770;SDS011;45649;53.014;6.600;2023-02-01T13:12:57;304.63;;;33.00;;
59770;SDS011;45649;53.014;6.600;2023-02-01T13:15:29;722.40;;;89.07;;
59770;SDS011;45649;53.014;6.600;2023-02-01T13:17:58;767.67;;;82.13;;
59770;SDS011;45649;53.014;6.600;2023-02-01T13:23:05;26.17;;;5.30;;
59770;SDS011;45649;53.014;6.600;2023-02-01T13:28:11;28.47;;;5.23;;
59770;SDS011;45649;53.014;6.600;2023-02-01T13:33:22;25.57;;;4.57;;
59770;SDS011;45649;53.014;6.600;2023-02-01T13:43:38;16.53;;;3.90;;
59770;SDS011;45649;53.014;6.600;2023-02-01T13:46:07;22.87;;;4.70;;
59770;SDS011;45649;53.014;6.600;2023-02-01T13:48:47;25.37;;;5.17;;
59770;SDS011;45649;53.014;6.600;2023-02-01T13:51:14;23.57;;;4.83;;
59770;SDS011;45649;53.014;6.600;2023-02-01T13:53:45;22.83;;;5.03;;
59770;SDS011;45649;53.014;6.600;2023-02-01T13:56:19;23.77;;;4.43;;
59770;SDS011;45649;53.014;6.600;2023-02-01T13:58:46;24.03;;;5.00;;
59770;SDS011;45649;53.014;6.600;2023-02-01T14:03:49;25.47;;;5.07;;
59770;SDS011;45649;53.014;6.600;2023-02-01T14:11:37;25.67;;;5.10;;
59770;SDS011;45649;53.014;6.600;2023-02-01T14:19:17;175.77;;;18.90;;
59770;SDS011;45649;53.014;6.600;2023-02-01T14:21:48;25.27;;;4.97;;
59770;SDS011;45649;53.014;6.600;2023-02-01T14:24:34;27.67;;;4.97;;
59770;SDS011;45649;53.014;6.600;2023-02-01T14:29:32;22.57;;;4.73;;
59770;SDS011;45649;53.014;6.600;2023-02-01T14:37:09;24.40;;;5.50;;
59770;SDS011;45649;53.014;6.600;2023-02-01T14:39:38;21.73;;;4.70;;
59770;SDS011;45649;53.014;6.600;2023-02-01T14:42:14;27.27;;;5.27;;
59770;SDS011;45649;53.014;6.600;2023-02-01T14:44:41;23.77;;;5.00;;
59770;SDS011;45649;53.014;6.600;2023-02-01T14:47:25;23.07;;;5.10;;
59770;SDS011;45649;53.014;6.600;2023-02-01T14:49:56;22.07;;;5.23;;
59770;SDS011;45649;53.014;6.600;2023-02-01T14:52:36;20.27;;;4.50;;
59770;SDS011;45649;53.014;6.600;2023-02-01T14:55:09;28.47;;;6.20;;
59770;SDS011;45649;53.014;6.600;2023-02-01T14:57:37;22.70;;;4.63;;
59770;SDS011;45649;53.014;6.600;2023-02-01T15:00:07;23.77;;;4.83;;
59770;SDS011;45649;53.014;6.600;2023-02-01T15:02:34;24.93;;;5.27;;
59770;SDS011;45649;53.014;6.600;2023-02-01T15:05:12;34.47;;;5.70;;
59770;SDS011;45649;53.014;6.600;2023-02-01T15:07:45;31.57;;;5.33;;
59770;SDS011;45649;53.014;6.600;2023-02-01T15:10:12;28.37;;;5.00;;
59770;SDS011;45649;53.014;6.600;2023-02-01T15:12:40;22.70;;;4.97;;
59770;SDS011;45649;53.014;6.600;2023-02-01T15:15:10;25.27;;;5.23;;
59770;SDS011;45649;53.014;6.600;2023-02-01T15:17:37;24.83;;;5.43;;
59770;SDS011;45649;53.014;6.600;2023-02-01T15:20:12;24.70;;;4.70;;
59770;SDS011;45649;53.014;6.600;2023-02-01T15:22:38;21.53;;;5.20;;
59770;SDS011;45649;53.014;6.600;2023-02-01T15:25:04;19.33;;;4.40;;
59770;SDS011;45649;53.014;6.600;2023-02-01T15:27:31;17.97;;;4.13;;
59770;SDS011;45649;53.014;6.600;2023-02-01T15:30:05;23.37;;;4.47;;
59770;SDS011;45649;53.014;6.600;2023-02-01T15:32:33;23.23;;;4.63;;
59770;SDS011;45649;53.014;6.600;2023-02-01T15:35:00;21.17;;;4.27;;
59770;SDS011;45649;53.014;6.600;2023-02-01T15:37:27;22.23;;;4.40;;
59770;SDS011;45649;53.014;6.600;2023-02-01T15:42:55;21.93;;;4.27;;
59770;SDS011;45649;53.014;6.600;2023-02-01T15:45:25;17.83;;;4.03;;
59770;SDS011;45649;53.014;6.600;2023-02-01T15:47:51;21.33;;;4.90;;
59770;SDS011;45649;53.014;6.600;2023-02-01T15:50:18;20.03;;;4.53;;
59770;SDS011;45649;53.014;6.600;2023-02-01T15:52:46;20.23;;;4.43;;
59770;SDS011;45649;53.014;6.600;2023-02-01T15:57:49;19.73;;;4.80;;
59770;SDS011;45649;53.014;6.600;2023-02-01T16:05:29;17.57;;;4.70;;
59770;SDS011;45649;53.014;6.600;2023-02-01T16:08:48;22.67;;;5.10;;
59770;SDS011;45649;53.014;6.600;2023-02-01T16:10:45;22.07;;;4.40;;
59770;SDS011;45649;53.014;6.600;2023-02-01T16:13:12;23.90;;;4.77;;
59770;SDS011;45649;53.014;6.600;2023-02-01T16:15:38;19.87;;;4.23;;
59770;SDS011;45649;53.014;6.600;2023-02-01T16:18:05;15.90;;;4.40;;
59770;SDS011;45649;53.014;6.600;2023-02-01T16:20:33;18.47;;;4.83;;
59770;SDS011;45649;53.014;6.600;2023-02-01T16:23:00;22.97;;;4.43;;
59770;SDS011;45649;53.014;6.600;2023-02-01T16:25:26;26.53;;;4.60;;
59770;SDS011;45649;53.014;6.600;2023-02-01T16:27:52;21.67;;;4.33;;
59770;SDS011;45649;53.014;6.600;2023-02-01T16:30:18;19.80;;;4.63;;
59770;SDS011;45649;53.014;6.600;2023-02-01T16:32:59;20.23;;;4.70;;
59770;SDS011;45649;53.014;6.600;2023-02-01T16:35:36;21.70;;;4.53;;
59770;SDS011;45649;53.014;6.600;2023-02-01T16:38:03;22.10;;;4.50;;
59770;SDS011;45649;53.014;6.600;2023-02-01T16:40:36;18.43;;;4.40;;
59770;SDS011;45649;53.014;6.600;2023-02-01T16:43:05;17.67;;;4.73;;
59770;SDS011;45649;53.014;6.600;2023-02-01T16:45:34;18.93;;;4.60;;
59770;SDS011;45649;53.014;6.600;2023-02-01T16:48:02;26.20;;;5.30;;
59770;SDS011;45649;53.014;6.600;2023-02-01T16:50:30;22.17;;;4.83;;
59770;SDS011;45649;53.014;6.600;2023-02-01T16:52:57;20.47;;;4.53;;
59770;SDS011;45649;53.014;6.600;2023-02-01T16:55:23;21.10;;;4.27;;
59770;SDS011;45649;53.014;6.600;2023-02-01T16:57:50;19.83;;;4.37;;
59770;SDS011;45649;53.014;6.600;2023-02-01T17:00:17;20.23;;;4.77;;
59770;SDS011;45649;53.014;6.600;2023-02-01T17:02:45;23.53;;;4.50;;
59770;SDS011;45649;53.014;6.600;2023-02-01T17:05:11;25.97;;;5.17;;
59770;SDS011;45649;53.014;6.600;2023-02-01T17:07:38;21.43;;;5.20;;
59770;SDS011;45649;53.014;6.600;2023-02-01T17:10:05;20.33;;;4.87;;
59770;SDS011;45649;53.014;6.600;2023-02-01T17:12:32;19.80;;;5.07;;
59770;SDS011;45649;53.014;6.600;2023-02-01T17:14:58;23.93;;;5.17;;
59770;SDS011;45649;53.014;6.600;2023-02-01T17:17:31;23.10;;;4.73;;
59770;SDS011;45649;53.014;6.600;2023-02-01T17:19:58;22.23;;;4.80;;
59770;SDS011;45649;53.014;6.600;2023-02-01T17:22:24;27.10;;;5.47;;
59770;SDS011;45649;53.014;6.600;2023-02-01T17:24:50;21.90;;;5.17;;
59770;SDS011;45649;53.014;6.600;2023-02-01T17:27:16;22.63;;;5.07;;